createdAt,value
2018-11-11T08:02:03.300Z,97648.32
2018-11-11T08:04:32.389Z,97664.28
2018-11-11T08:07:01.460Z,97660.00
2018-11-11T08:09:30.623Z,97658.16
2018-11-11T08:12:01.791Z,97669.07
2018-11-11T08:14:33.806Z,97685.63
2018-11-11T08:17:02.898Z,97696.06
2018-11-11T08:19:31.967Z,97704.94
2018-11-11T08:22:03.423Z,97720.66
2018-11-11T08:24:32.558Z,97716.42
2018-11-11T08:27:04.613Z,97745.11
2018-11-11T08:29:34.859Z,97750.73
2018-11-11T08:32:05.718Z,97760.91
2018-11-11T08:34:38.097Z,97768.91
2018-11-11T08:37:07.256Z,97760.73
2018-11-11T08:39:38.734Z,97761.27
2018-11-11T08:42:21.164Z,97755.52
2018-11-11T08:44:52.046Z,97763.27
2018-11-11T08:47:24.945Z,97756.97
2018-11-11T08:49:58.493Z,97747.95
2018-11-11T08:52:27.454Z,97747.70
2018-11-11T08:54:56.593Z,97747.63
2018-11-11T08:57:25.777Z,97754.53
2018-11-11T08:59:57.763Z,97749.50
2018-11-11T09:02:30.443Z,97759.78
2018-11-11T09:04:59.557Z,97759.78
2018-11-11T09:07:30.429Z,97769.45
2018-11-11T09:10:00.212Z,97763.01
2018-11-11T09:12:29.883Z,97771.11
2018-11-11T09:15:00.665Z,97766.19
2018-11-11T09:17:30.832Z,97767.66
2018-11-11T09:20:00.303Z,97759.13
2018-11-11T09:22:29.514Z,97763.67
2018-11-11T09:25:01.173Z,97775.98
2018-11-11T09:27:31.460Z,97783.02
2018-11-11T09:30:04.264Z,97789.59
2018-11-11T09:32:33.436Z,97791.56
2018-11-11T09:35:02.746Z,97800.45
2018-11-11T09:37:37.603Z,97793.94
2018-11-11T09:40:12.606Z,97796.60
2018-11-11T09:42:47.927Z,97790.53
2018-11-11T09:45:17.453Z,97794.12
2018-11-11T09:47:48.972Z,97786.94
2018-11-11T09:50:20.653Z,97792.68
2018-11-11T09:52:49.696Z,97786.36
2018-11-11T09:55:19.148Z,97786.66
2018-11-11T09:57:50.749Z,97793.14
2018-11-11T10:00:23.042Z,97785.27
2018-11-11T10:04:59.870Z,97787.69
2018-11-11T10:07:39.647Z,97790.14
2018-11-11T10:10:27.540Z,97792.77
2018-11-11T10:13:00.843Z,97793.84
2018-11-11T10:15:37.941Z,97794.05
2018-11-11T10:18:12.947Z,97792.64
2018-11-11T10:20:49.443Z,97797.72
2018-11-11T10:23:31.216Z,97788.83
2018-11-11T10:27:09.139Z,97793.15
2018-11-11T10:29:45.321Z,97793.45
2018-11-11T10:32:32.036Z,97791.64
2018-11-11T10:35:10.262Z,97795.38
2018-11-11T10:37:45.758Z,97796.84
2018-11-11T10:40:27.513Z,97802.27
2018-11-11T10:45:04.558Z,97800.53
2018-11-11T10:47:43.428Z,97793.77
2018-11-11T10:50:25.806Z,97780.94
2018-11-11T10:52:58.021Z,97785.66
2018-11-11T10:55:27.298Z,97785.16
2018-11-11T10:57:56.434Z,97783.13
2018-11-11T11:00:29.035Z,97775.06
2018-11-11T11:02:59.430Z,97782.52
2018-11-11T11:05:30.331Z,97779.38
2018-11-11T11:08:10.266Z,97779.12
2018-11-11T11:10:39.580Z,97781.84
2018-11-11T11:13:09.727Z,97785.89
2018-11-11T11:15:38.945Z,97788.86
2018-11-11T11:18:12.110Z,97791.48
2018-11-11T11:20:41.239Z,97794.02
2018-11-11T11:23:11.733Z,97792.75
2018-11-11T11:25:44.622Z,97791.47
2018-11-11T11:28:16.416Z,97790.34
2018-11-11T11:30:45.642Z,97791.09
2018-11-11T11:33:21.067Z,97783.03
2018-11-11T11:35:50.267Z,97781.44
2018-11-11T11:38:20.415Z,97771.38
2018-11-11T11:40:51.734Z,97781.25
2018-11-11T11:43:25.051Z,97773.57
2018-11-11T11:45:54.306Z,97769.34
2018-11-11T11:48:25.753Z,97763.03
2018-11-11T11:50:57.646Z,97754.30
2018-11-11T11:53:27.037Z,97749.67
2018-11-11T11:55:56.383Z,97757.03
2018-11-11T11:58:29.587Z,97751.77
2018-11-11T12:01:02.020Z,97754.97
2018-11-11T12:03:34.319Z,97746.94
2018-11-11T12:06:05.643Z,97750.11
2018-11-11T12:08:38.146Z,97739.76
2018-11-11T12:11:12.359Z,97731.77
2018-11-11T12:13:44.415Z,97734.86
2018-11-11T12:16:18.858Z,97734.84
2018-11-11T12:18:48.026Z,97731.81
2018-11-11T12:21:17.466Z,97729.46
2018-11-11T12:23:46.492Z,97725.88
2018-11-11T12:26:17.381Z,97727.01
2018-11-11T12:28:49.886Z,97717.91
2018-11-11T12:31:19.378Z,97717.00
2018-11-11T12:33:48.821Z,97715.47
2018-11-11T12:36:20.234Z,97708.18
2018-11-11T12:38:54.073Z,97712.80
2018-11-11T12:41:26.244Z,97718.81
2018-11-11T12:43:58.774Z,97721.19
2018-11-11T12:46:28.025Z,97714.59
2018-11-11T12:49:05.160Z,97721.33
2018-11-11T12:51:37.592Z,97717.42
2018-11-11T12:54:07.458Z,97706.03
2018-11-11T12:56:38.807Z,97719.63
2018-11-11T12:59:09.798Z,97725.67
2018-11-11T13:01:42.556Z,97723.20
2018-11-11T13:04:12.273Z,97735.55
2018-11-11T13:06:43.625Z,97739.98
2018-11-11T13:09:12.790Z,97733.84
2018-11-11T13:11:46.919Z,97738.19
2018-11-11T13:14:18.463Z,97739.48
2018-11-11T13:16:49.404Z,97739.67
2018-11-11T13:19:20.110Z,97748.89
2018-11-11T13:24:32.778Z,97753.09
2018-11-11T13:27:09.976Z,97752.45
2018-11-11T13:29:43.359Z,97762.34
2018-11-11T13:32:12.484Z,97770.41
2018-11-11T13:34:41.665Z,97775.22
2018-11-11T13:37:11.256Z,97771.30
2018-11-11T13:39:43.400Z,97770.67
2018-11-11T13:42:12.587Z,97771.48
2018-11-11T13:44:42.050Z,97781.41
2018-11-11T13:47:11.108Z,97777.68
2018-11-11T13:49:45.835Z,97782.00
2018-11-11T13:52:17.447Z,97789.83
2018-11-11T13:54:46.441Z,97786.70
2018-11-11T13:57:16.387Z,97785.50
2018-11-11T13:59:45.603Z,97784.21
2018-11-11T14:02:15.414Z,97794.05
2018-11-11T14:04:47.560Z,97789.98
2018-11-11T14:07:19.897Z,97795.52
2018-11-11T14:09:49.020Z,97812.76
2018-11-11T14:12:17.956Z,97812.01
2018-11-11T14:14:49.360Z,97827.47
2018-11-11T14:17:18.280Z,97832.45
2018-11-11T14:19:47.443Z,97839.91
2018-11-11T14:22:16.387Z,97847.98
2018-11-11T14:24:45.630Z,97873.31
2018-11-11T14:27:14.998Z,97866.78
2018-11-11T14:29:44.245Z,97844.31
2018-11-11T14:32:13.315Z,97848.05
2018-11-11T14:34:42.497Z,97845.20
2018-11-11T14:37:14.304Z,97845.25
2018-11-11T14:39:44.683Z,97832.73
2018-11-11T14:44:59.565Z,97865.35
2018-11-11T14:47:28.713Z,97882.44
2018-11-11T14:49:57.771Z,97894.52
2018-11-11T14:52:29.298Z,97864.09
2018-11-11T14:54:58.358Z,97874.83
2018-11-11T14:57:27.318Z,97871.81
2018-11-11T14:59:59.999Z,97854.27
2018-11-11T15:02:28.991Z,97859.78
2018-11-11T15:04:59.747Z,97845.03
2018-11-11T15:07:28.749Z,97842.17
2018-11-11T15:10:00.955Z,97847.98
2018-11-11T15:12:29.869Z,97847.69
2018-11-11T15:14:58.880Z,97840.81
2018-11-11T15:17:32.270Z,97843.84
2018-11-11T15:20:01.606Z,97862.47
2018-11-11T15:22:30.546Z,97863.91
2018-11-11T15:24:59.579Z,97845.31
2018-11-11T15:27:33.433Z,97832.89
2018-11-11T15:30:04.871Z,97833.42
2018-11-11T15:32:33.847Z,97835.02
2018-11-11T15:35:02.960Z,97855.27
2018-11-11T15:37:31.998Z,97850.06
2018-11-11T15:40:01.408Z,97848.05
2018-11-11T15:42:33.621Z,97849.70
2018-11-11T15:45:02.895Z,97842.03
2018-11-11T15:47:32.753Z,97856.48
2018-11-11T15:50:02.983Z,97856.63
2018-11-11T15:52:35.685Z,97859.81
2018-11-11T15:55:09.365Z,97847.88
2018-11-11T15:57:38.559Z,97854.09
2018-11-11T16:00:15.189Z,97851.94
2018-11-11T16:02:44.547Z,97859.18
2018-11-11T16:05:15.978Z,97859.06
2018-11-11T16:07:47.488Z,97846.22
2018-11-11T16:10:20.724Z,97841.25
2018-11-11T16:12:50.054Z,97852.89
2018-11-11T16:15:38.988Z,97854.44
2018-11-11T16:18:09.985Z,97862.42
2018-11-11T16:20:39.341Z,97853.09
2018-11-11T16:23:12.691Z,97857.33
2018-11-11T16:25:43.885Z,97861.28
2018-11-11T16:28:18.280Z,97849.05
2018-11-11T16:30:49.022Z,97844.00
2018-11-11T16:33:19.401Z,97841.05
2018-11-11T16:35:48.436Z,97845.97
2018-11-11T16:38:20.668Z,97852.73
2018-11-11T16:40:51.861Z,97859.98
2018-11-11T16:43:23.053Z,97859.11
2018-11-11T16:45:52.101Z,97861.09
2018-11-11T16:48:21.151Z,97869.92
2018-11-11T16:50:51.187Z,97865.60
2018-11-11T16:53:21.998Z,97870.20
2018-11-11T16:55:51.057Z,97869.92
2018-11-11T16:58:20.148Z,97857.39
2018-11-11T17:00:54.921Z,97885.75
2018-11-11T17:03:27.996Z,97892.88
2018-11-11T17:06:00.234Z,97900.23
2018-11-11T17:08:29.627Z,97908.64
2018-11-11T17:14:10.904Z,97914.66
2018-11-11T17:16:40.018Z,97915.91
2018-11-11T17:19:11.177Z,97920.05
2018-11-11T17:21:41.896Z,97929.50
2018-11-11T17:24:13.783Z,97938.02
2018-11-11T17:26:45.854Z,97943.25
2018-11-11T17:29:15.033Z,97949.35
2018-11-11T17:31:49.221Z,97946.89
2018-11-11T17:34:18.318Z,97944.26
2018-11-11T17:36:51.102Z,97945.48
2018-11-11T17:39:25.813Z,97938.23
2018-11-11T17:42:02.197Z,97950.88
2018-11-11T17:44:33.856Z,97956.80
2018-11-11T17:47:02.929Z,97950.15
2018-11-11T17:49:35.032Z,97956.75
2018-11-11T17:52:04.288Z,97953.02
2018-11-11T17:54:33.451Z,97947.37
2018-11-11T17:57:04.527Z,97950.50
2018-11-11T17:59:39.550Z,97948.88
2018-11-11T18:02:10.343Z,97950.07
2018-11-11T18:04:39.491Z,97953.81
2018-11-11T18:07:08.533Z,97956.82
2018-11-11T18:09:37.731Z,97959.70
2018-11-11T18:12:09.097Z,97957.16
2018-11-11T18:14:41.156Z,97946.17
2018-11-11T18:17:10.492Z,97956.42
2018-11-11T18:19:39.446Z,97943.57
2018-11-11T18:22:10.546Z,97946.91
2018-11-11T18:24:42.059Z,97937.44
2018-11-11T18:27:13.630Z,97940.31
2018-11-11T18:29:42.909Z,97943.56
2018-11-11T18:32:11.793Z,97943.81
2018-11-11T18:34:40.810Z,97959.61
2018-11-11T18:37:12.679Z,97958.42
2018-11-11T18:39:42.688Z,97961.20
2018-11-11T18:42:11.697Z,97958.02
2018-11-11T18:44:41.235Z,97957.62
2018-11-11T18:47:12.551Z,97954.06
2018-11-11T18:49:43.774Z,97955.93
2018-11-11T18:52:16.430Z,97954.22
2018-11-11T18:54:45.611Z,97959.52
2018-11-11T18:57:14.552Z,97957.38
2018-11-11T18:59:47.732Z,97952.98
2018-11-11T19:02:19.516Z,97952.59
2018-11-11T19:04:48.620Z,97954.97
2018-11-11T19:07:17.943Z,97954.25
2018-11-11T19:09:49.719Z,97949.25
2018-11-11T19:12:18.736Z,97947.08
2018-11-11T19:14:48.949Z,97940.11
2018-11-11T19:17:21.969Z,97942.63
2018-11-11T19:19:53.116Z,97950.57
2018-11-11T19:22:27.601Z,97949.53
2018-11-11T19:25:00.555Z,97958.56
2018-11-11T19:27:31.737Z,97957.92
2018-11-11T19:30:03.980Z,97963.88
2018-11-11T19:32:33.153Z,97965.72
2018-11-11T19:35:02.093Z,97971.66
2018-11-11T19:37:31.956Z,97981.34
2018-11-11T19:40:02.261Z,97987.15
2018-11-11T19:42:31.273Z,97987.48
2018-11-11T19:45:01.394Z,97985.03
2018-11-11T19:47:35.137Z,97997.33
2018-11-11T19:50:06.199Z,97990.04
2018-11-11T19:52:41.758Z,97992.95
2018-11-11T19:55:14.443Z,97993.97
2018-11-11T19:57:43.910Z,97996.12
2018-11-11T20:00:19.901Z,98007.95
2018-11-11T20:02:51.025Z,98010.64
2018-11-11T20:05:23.447Z,98002.55
2018-11-11T20:07:53.773Z,98004.81
2018-11-11T20:10:24.948Z,98009.78
2018-11-11T20:12:54.821Z,98003.86
2018-11-11T20:15:28.413Z,98006.05
2018-11-11T20:18:00.320Z,98004.20
2018-11-11T20:20:31.154Z,97997.52
2018-11-11T20:23:03.527Z,98009.65
2018-11-11T20:25:34.736Z,98008.80
2018-11-11T20:28:04.801Z,98013.27
2018-11-11T20:30:39.559Z,98004.08
2018-11-11T20:33:12.907Z,97997.59
2018-11-11T20:35:46.155Z,97998.58
2018-11-11T20:38:16.379Z,98004.56
2018-11-11T20:40:47.888Z,98001.88
2018-11-11T20:43:21.642Z,97996.69
2018-11-11T20:45:50.539Z,97990.61
2018-11-11T20:48:23.593Z,98004.34
2018-11-11T20:50:55.063Z,97994.70
2018-11-11T20:53:24.704Z,98023.31
2018-11-11T20:55:53.712Z,98026.09
2018-11-11T20:58:25.732Z,98024.50
2018-11-11T21:00:56.847Z,98028.70
2018-11-11T21:03:30.115Z,98025.86
2018-11-11T21:06:00.218Z,98014.48
2018-11-11T21:08:29.562Z,98005.64
2018-11-11T21:10:58.829Z,98013.38
2018-11-11T21:13:28.946Z,98022.81
2018-11-11T21:15:58.368Z,98017.47
2018-11-11T21:18:29.933Z,98020.22
2018-11-11T21:20:59.144Z,98021.33
2018-11-11T21:23:30.092Z,98019.25
2018-11-11T21:26:04.623Z,98019.25
2018-11-11T21:28:35.353Z,98026.09
2018-11-11T21:31:04.887Z,98026.13
2018-11-11T21:33:39.871Z,98025.54
2018-11-11T21:36:09.466Z,98039.26
2018-11-11T21:38:41.301Z,98042.75
2018-11-11T21:41:10.442Z,98047.84
2018-11-11T21:43:39.603Z,98052.52
2018-11-11T21:46:08.778Z,98051.08
2018-11-11T21:48:41.477Z,98048.14
2018-11-11T21:51:15.368Z,98042.69
2018-11-11T21:53:44.334Z,98042.84
2018-11-11T21:56:13.521Z,98044.34
2018-11-11T21:58:43.441Z,98045.44
2018-11-11T22:01:14.936Z,98050.61
2018-11-11T22:03:47.017Z,98057.69
2018-11-11T22:06:18.214Z,98065.20
2018-11-11T22:08:47.353Z,98066.56
2018-11-11T22:11:20.434Z,98080.90
2018-11-11T22:13:53.215Z,98076.32
2018-11-11T22:16:23.720Z,98074.97
2018-11-11T22:18:54.797Z,98072.78
2018-11-11T22:21:23.777Z,98074.89
2018-11-11T22:23:52.691Z,98085.02
2018-11-11T22:26:22.139Z,98093.10
2018-11-11T22:28:54.266Z,98088.05
2018-11-11T22:31:23.322Z,98085.91
2018-11-11T22:33:52.408Z,98087.97
2018-11-11T22:36:24.467Z,98091.97
2018-11-11T22:38:54.314Z,98082.95
2018-11-11T22:41:24.506Z,98089.02
2018-11-11T22:43:53.578Z,98080.23
2018-11-11T22:46:25.045Z,98078.08
2018-11-11T22:48:53.844Z,98083.97
2018-11-11T22:51:25.432Z,98085.58
2018-11-11T22:53:54.886Z,98084.73
2018-11-11T22:56:23.808Z,98078.88
2018-11-11T22:58:52.809Z,98092.23
2018-11-11T23:01:22.567Z,98100.52
2018-11-11T23:03:54.873Z,98097.69
2018-11-11T23:06:25.061Z,98104.70
2018-11-11T23:08:54.293Z,98103.57
2018-11-11T23:11:23.983Z,98108.41
2018-11-11T23:13:53.558Z,98118.75
2018-11-11T23:16:26.256Z,98111.72
2018-11-11T23:18:55.329Z,98115.88
2018-11-11T23:21:24.274Z,98119.36
2018-11-11T23:23:53.108Z,98118.45
2018-11-11T23:26:24.618Z,98125.36
2018-11-11T23:28:54.555Z,98118.26
2018-11-11T23:31:23.958Z,98123.30
2018-11-11T23:33:53.676Z,98125.70
2018-11-11T23:36:22.689Z,98113.28
2018-11-11T23:38:51.641Z,98110.34
2018-11-11T23:41:23.424Z,98118.13
2018-11-11T23:43:53.316Z,98124.06
2018-11-11T23:46:22.431Z,98128.61
2018-11-11T23:48:53.497Z,98126.50
2018-11-11T23:51:22.399Z,98119.77
2018-11-11T23:53:53.848Z,98111.52
2018-11-11T23:56:25.243Z,98120.61
2018-11-11T23:58:55.788Z,98124.44
